Almond, WI (54909)

2:07 PM CDT on September 01, 2015 (GMT -0500)
KWIWAUPA3 | | Change Station
CLOSE
Current Station
Personal Weather Station
Location: Waupaca, WI
Elevation: 900 ft
Nearby Weather Stations

Elev 900 ft 44.38 °N, 89.23 °W | Updated 3 minutes ago

Clear
Clear
86.0 °F
Feels Like 94 °F
N
2.0
Wind Variable Wind from South
Gusts 10.0 mph

Today
High -- | Low -- °F
--% Chance of Precip.
Yesterday
High -- | Low -- °F
Precip. -- in
6:19 AM 7:33 PM
Waning Gibbous, 87% visible
Pressure 29.96 in
Visibility 10.0 miles
Clouds Scattered Clouds 4000 ft
Scattered Clouds 6000 ft
Scattered Clouds 7000 ft
Heat Index 94 °F
Dew Point 74 °F
Humidity 67%
Rainfall 0.00 in
Snow Depth Not available.
UV 6 out of 12
Pollen 10.40 out of 12
Air Quality Not available.
Flu Activity Not available.
METAR KPCZ 011855Z AUTO 21008KT 10SM SCT040 SCT060 SCT070 32/20 A2996 RMK AO2 T03200200
Pressure 29.96 in
Visibility 10.0 miles
Clouds Scattered Clouds 4000 ft
Scattered Clouds 6000 ft
Scattered Clouds 7000 ft
Heat Index 94 °F
Dew Point 74 °F
Humidity 67%
Rainfall 0.00 in
Snow Depth Not available.
UV 6 out of 12
Pollen 10.40 out of 12
Air Quality Not available.
Flu Activity Not available.
METAR KPCZ 011855Z AUTO 21008KT 10SM SCT040 SCT060 SCT070 32/20 A2996 RMK AO2 T03200200

10-Day Weather Forecast

×

Almanac

Astronomy

Sep. 01, 2015 Rise Set
Actual Time
Civil Twilight
Nautical Twilight
Astronomical Twilight
Moon
Length of Visible Light
Length of Day
Tomorrow will be .
, % of the Moon is Illuminated

Today's Extremes

State Highs State Lows

Community

WunderPhotos

Upload Photos

1,851,596 photos uploaded!

WunderBlogs® & News

Nearby

Air Quality

  Air Quality AQ Index Pollutant
Not available.

Snow Depth

Station Depth Elevation

Earthquake Activity

City Distance Mag. Time & Date
Minimum magnitude displayed is 2.5.

Coastal Water Temperatures

Place Temperature

Stations

Nearby Weather Stations

Station Location Temp. Windchill Dew Point Humidity Wind Precip. Elev Updated Type